Time;durP1;ratioP1;P1;durP2;ratioP2;P2;SDS_P1;SDS_P2;PMS_P1;PMS_P2;Temp;Humidity;BMP_temperature;BMP_pressure;BME280_temperature;BME280_humidity;BME280_pressure;Samples;Min_cycle;Max_cycle;Signal;HPM_P1;HPM_P2
2021/05/16 00:00:30;;;;;;;0.85;0.50;;;;;;;;;;1480529;40;20044;-64
2021/05/16 00:01:31;;;;;;;1.90;0.55;;;;;;;;;;1480487;40;20301;-64
2021/05/16 00:02:32;;;;;;;0.75;0.43;;;;;;;;;;1480670;40;20029;-64
2021/05/16 00:03:34;;;;;;;1.58;0.52;;;;;;;;;;1480556;40;20055;-63
2021/05/16 00:04:35;;;;;;;0.90;0.50;;;;;;;;;;1480558;40;20056;-63
2021/05/16 00:05:36;;;;;;;1.58;0.68;;;;;;;;;;1480681;40;20049;-64
2021/05/16 00:06:37;;;;;;;1.08;0.50;;;;;;;;;;1480760;40;20033;-64
2021/05/16 00:07:38;;;;;;;0.88;0.47;;;;;;;;;;1480547;40;20025;-63
2021/05/16 00:08:39;;;;;;;0.93;0.50;;;;;;;;;;1480485;40;20029;-63
2021/05/16 00:09:40;;;;;;;1.10;0.50;;;;;;;;;;1515762;22;20017;-62
2021/05/16 00:10:42;;;;;;;0.65;0.40;;;;;;;;;;1480531;40;20029;-61
2021/05/16 00:11:43;;;;;;;1.10;0.60;;;;;;;;;;1480695;40;20033;-60
2021/05/16 00:12:45;;;;;;;0.82;0.50;;;;;;;;;;1480531;40;20387;-62
2021/05/16 00:13:46;;;;;;;1.50;0.68;;;;;;;;;;1480482;40;20040;-61
2021/05/16 00:14:48;;;;;;;1.35;0.60;;;;;;;;;;1480484;40;20399;-61
2021/05/16 00:15:51;;;;;;;0.88;0.50;;;;;;;;;;1480481;40;20285;-61
2021/05/16 00:16:53;;;;;;;1.00;0.70;;;;;;;;;;1480587;40;20077;-61
2021/05/16 00:17:55;;;;;;;0.55;0.38;;;;;;;;;;1480639;40;20044;-61
2021/05/16 00:18:56;;;;;;;1.02;0.50;;;;;;;;;;1480660;40;20035;-61
2021/05/16 00:19:57;;;;;;;1.45;0.60;;;;;;;;;;1480480;40;20060;-61
2021/05/16 00:20:58;;;;;;;0.60;0.40;;;;;;;;;;1480441;40;20056;-61
2021/05/16 00:22:00;;;;;;;0.73;0.50;;;;;;;;;;1480669;40;20375;-61
2021/05/16 00:23:03;;;;;;;1.45;0.60;;;;;;;;;;1480680;40;20025;-61
2021/05/16 00:24:05;;;;;;;0.93;0.50;;;;;;;;;;1480651;40;20069;-61
2021/05/16 00:25:09;;;;;;;1.55;0.57;;;;;;;;;;1480622;40;20115;-61
2021/05/16 00:26:10;;;;;;;1.20;0.45;;;;;;;;;;1479944;40;20084;-61
2021/05/16 00:27:11;;;;;;;0.95;0.57;;;;;;;;;;1480015;40;20080;-61
2021/05/16 00:28:12;;;;;;;1.25;0.50;;;;;;;;;;1480063;40;20045;-61
2021/05/16 00:29:13;;;;;;;0.93;0.50;;;;;;;;;;1479997;40;20130;-61
2021/05/16 00:30:17;;;;;;;1.35;0.50;;;;;;;;;;1480594;40;20036;-60
2021/05/16 00:31:19;;;;;;;0.85;0.50;;;;;;;;;;1480654;40;20037;-61
2021/05/16 00:32:27;;;;;;;1.10;0.50;;;;;;;;;;1480685;40;20029;-61
2021/05/16 00:33:29;;;;;;;0.88;0.50;;;;;;;;;;1480450;40;20315;-61
2021/05/16 00:34:30;;;;;;;1.20;0.52;;;;;;;;;;1480392;40;20036;-61
2021/05/16 00:35:33;;;;;;;1.55;0.55;;;;;;;;;;1480702;40;20036;-60
2021/05/16 00:36:34;;;;;;;1.17;0.45;;;;;;;;;;1480511;40;20383;-61
2021/05/16 00:37:39;;;;;;;0.75;0.52;;;;;;;;;;1480628;40;20030;-61
2021/05/16 00:38:40;;;;;;;1.60;0.57;;;;;;;;;;1480636;40;20025;-61
2021/05/16 00:39:42;;;;;;;1.00;0.40;;;;;;;;;;1480466;40;20367;-61
2021/05/16 00:40:43;;;;;;;2.13;0.60;;;;;;;;;;1480444;40;20036;-60
2021/05/16 00:41:44;;;;;;;1.55;0.55;;;;;;;;;;1480389;40;20040;-61
2021/05/16 00:42:46;;;;;;;0.90;0.50;;;;;;;;;;1480366;40;20033;-60
2021/05/16 00:43:47;;;;;;;1.05;0.50;;;;;;;;;;1480574;40;20065;-61
2021/05/16 00:45:04;;;;;;;1.20;0.88;;;;;;;;;;1480519;40;20037;-61
2021/05/16 00:46:08;;;;;;;1.02;0.63;;;;;;;;;;1480442;40;20070;-62
2021/05/16 00:47:10;;;;;;;0.85;0.40;;;;;;;;;;1480318;40;20385;-60
2021/05/16 00:48:12;;;;;;;1.35;0.43;;;;;;;;;;1480504;40;20052;-61
2021/05/16 00:49:15;;;;;;;0.73;0.40;;;;;;;;;;1480490;40;20030;-61
2021/05/16 00:50:18;;;;;;;1.10;0.40;;;;;;;;;;1480360;40;20403;-60
2021/05/16 00:51:19;;;;;;;0.75;0.40;;;;;;;;;;1480466;40;20400;-61
2021/05/16 00:52:21;;;;;;;0.50;0.40;;;;;;;;;;1480416;40;20036;-60
2021/05/16 00:53:23;;;;;;;1.10;0.40;;;;;;;;;;1480488;40;20107;-61
2021/05/16 00:54:24;;;;;;;0.50;0.40;;;;;;;;;;1480529;40;20036;-61
2021/05/16 00:55:26;;;;;;;2.75;0.60;;;;;;;;;;1480574;40;20036;-61
2021/05/16 00:56:27;;;;;;;1.00;0.40;;;;;;;;;;1480477;40;20051;-61
2021/05/16 00:57:28;;;;;;;0.75;0.45;;;;;;;;;;1480397;40;20040;-61
2021/05/16 00:58:29;;;;;;;1.05;0.50;;;;;;;;;;1480336;40;20029;-60
2021/05/16 00:59:31;;;;;;;1.40;0.50;;;;;;;;;;1480396;40;20029;-61
2021/05/16 01:00:40;;;;;;;0.88;0.40;;;;;;;;;;1480352;40;20033;-61
2021/05/16 01:01:40;;;;;;;1.05;0.50;;;;;;;;;;1480399;40;20032;-61
2021/05/16 01:02:43;;;;;;;1.13;0.50;;;;;;;;;;1480585;40;20033;-61
2021/05/16 01:03:44;;;;;;;0.88;0.50;;;;;;;;;;1480359;40;20036;-62
2021/05/16 01:04:45;;;;;;;1.30;0.40;;;;;;;;;;1480536;40;20029;-62
2021/05/16 01:05:47;;;;;;;0.88;0.40;;;;;;;;;;1480347;40;20396;-60
2021/05/16 01:06:49;;;;;;;1.88;0.50;;;;;;;;;;1480333;40;20041;-60
2021/05/16 01:07:50;;;;;;;0.82;0.30;;;;;;;;;;1480353;40;20038;-61
2021/05/16 01:08:56;;;;;;;1.10;0.60;;;;;;;;;;1480422;40;20119;-61
2021/05/16 01:09:57;;;;;;;0.98;0.43;;;;;;;;;;1480459;40;20045;-62
2021/05/16 01:10:58;;;;;;;0.88;0.30;;;;;;;;;;1480340;40;20036;-62
2021/05/16 01:12:02;;;;;;;1.00;0.50;;;;;;;;;;1480632;40;20026;-60
2021/05/16 01:13:05;;;;;;;1.00;0.60;;;;;;;;;;1480434;40;20027;-61
2021/05/16 01:14:09;;;;;;;0.73;0.45;;;;;;;;;;1480417;40;20085;-61
2021/05/16 01:15:14;;;;;;;0.90;0.50;;;;;;;;;;1480338;40;20292;-61
2021/05/16 01:16:15;;;;;;;0.82;0.50;;;;;;;;;;1480521;40;20036;-60
2021/05/16 01:17:16;;;;;;;0.73;0.40;;;;;;;;;;1480472;40;20056;-60
2021/05/16 01:18:18;;;;;;;1.15;0.40;;;;;;;;;;1480325;40;20036;-61
2021/05/16 01:19:19;;;;;;;0.77;0.45;;;;;;;;;;1480287;40;20390;-61
2021/05/16 01:20:23;;;;;;;1.30;0.50;;;;;;;;;;1480302;40;20030;-61
2021/05/16 01:21:25;;;;;;;0.65;0.38;;;;;;;;;;1480317;40;20397;-62
2021/05/16 01:22:26;;;;;;;0.77;0.40;;;;;;;;;;1480331;40;20029;-61
2021/05/16 01:23:31;;;;;;;2.30;0.40;;;;;;;;;;1480327;40;20029;-61
2021/05/16 01:24:32;;;;;;;1.17;0.50;;;;;;;;;;1480340;40;20029;-60
2021/05/16 01:25:36;;;;;;;1.35;0.52;;;;;;;;;;1480388;40;20030;-62
2021/05/16 01:26:37;;;;;;;0.70;0.50;;;;;;;;;;1480471;40;20040;-61
2021/05/16 01:27:38;;;;;;;1.35;0.50;;;;;;;;;;1480458;40;20036;-61
2021/05/16 01:28:42;;;;;;;1.05;0.60;;;;;;;;;;1480530;40;20029;-61
2021/05/16 01:29:44;;;;;;;1.17;0.50;;;;;;;;;;1480217;40;20029;-61
2021/05/16 01:30:46;;;;;;;1.25;0.60;;;;;;;;;;1480343;40;20410;-61
2021/05/16 01:31:48;;;;;;;0.80;0.50;;;;;;;;;;1480521;40;20033;-62
2021/05/16 01:32:50;;;;;;;0.93;0.60;;;;;;;;;;1480297;40;20037;-62
2021/05/16 01:33:52;;;;;;;2.13;0.52;;;;;;;;;;1480243;40;20033;-62
2021/05/16 01:34:53;;;;;;;1.08;0.50;;;;;;;;;;1480336;40;20485;-60
2021/05/16 01:35:54;;;;;;;1.40;0.70;;;;;;;;;;1480261;40;20045;-61
2021/05/16 01:36:56;;;;;;;0.93;0.43;;;;;;;;;;1480465;40;20025;-61
2021/05/16 01:37:58;;;;;;;1.20;0.47;;;;;;;;;;1480243;40;20036;-61
2021/05/16 01:38:58;;;;;;;0.90;0.50;;;;;;;;;;1480439;40;20033;-61
2021/05/16 01:40:00;;;;;;;1.42;0.50;;;;;;;;;;1480283;40;20293;-61
2021/05/16 01:41:02;;;;;;;1.50;0.70;;;;;;;;;;1480278;40;20029;-62
2021/05/16 01:42:04;;;;;;;1.95;0.60;;;;;;;;;;1480302;40;20033;-61
2021/05/16 01:43:08;;;;;;;1.50;0.50;;;;;;;;;;1480297;40;20309;-61
2021/05/16 01:44:10;;;;;;;1.25;0.50;;;;;;;;;;1480270;40;20415;-62
2021/05/16 01:45:14;;;;;;;1.63;0.60;;;;;;;;;;1480397;40;20029;-61
2021/05/16 01:46:15;;;;;;;1.80;0.50;;;;;;;;;;1480452;40;20026;-61
2021/05/16 01:47:16;;;;;;;1.60;0.57;;;;;;;;;;1480335;40;20041;-61
2021/05/16 01:48:18;;;;;;;1.23;0.50;;;;;;;;;;1480224;40;20388;-61
2021/05/16 01:49:19;;;;;;;0.70;0.50;;;;;;;;;;1480261;40;20067;-61
2021/05/16 01:50:21;;;;;;;1.85;0.60;;;;;;;;;;1480258;40;20060;-61
2021/05/16 01:51:23;;;;;;;1.33;0.60;;;;;;;;;;1480278;40;20388;-61
2021/05/16 01:52:31;;;;;;;1.25;0.77;;;;;;;;;;1480371;40;20025;-62
2021/05/16 01:53:32;;;;;;;1.52;0.47;;;;;;;;;;1480230;40;20117;-60
2021/05/16 01:54:33;;;;;;;1.67;0.60;;;;;;;;;;1480207;40;20025;-61
2021/05/16 01:55:34;;;;;;;2.03;0.52;;;;;;;;;;1480403;40;20029;-61
2021/05/16 01:56:36;;;;;;;2.35;0.82;;;;;;;;;;1480174;40;20384;-61
2021/05/16 01:57:37;;;;;;;1.63;0.68;;;;;;;;;;1480437;40;20025;-61
2021/05/16 01:58:40;;;;;;;1.35;0.55;;;;;;;;;;1480208;40;20025;-61
2021/05/16 01:59:41;;;;;;;1.52;0.60;;;;;;;;;;1480194;40;20308;-61
2021/05/16 02:00:44;;;;;;;1.30;0.55;;;;;;;;;;1480215;40;20033;-61
2021/05/16 02:01:45;;;;;;;1.05;0.50;;;;;;;;;;1480247;40;20415;-61
2021/05/16 02:02:46;;;;;;;1.17;0.50;;;;;;;;;;1480824;40;20029;-61
2021/05/16 02:03:48;;;;;;;0.82;0.50;;;;;;;;;;1480796;40;20033;-61
2021/05/16 02:04:50;;;;;;;1.30;0.60;;;;;;;;;;1480780;40;20435;-61
2021/05/16 02:05:51;;;;;;;1.58;0.52;;;;;;;;;;1480824;40;20029;-61
2021/05/16 02:06:53;;;;;;;1.85;0.80;;;;;;;;;;1480925;40;20026;-61
2021/05/16 02:07:55;;;;;;;1.08;0.50;;;;;;;;;;1480855;40;20303;-61
2021/05/16 02:08:57;;;;;;;1.30;0.60;;;;;;;;;;1480773;40;20029;-61
2021/05/16 02:09:58;;;;;;;1.77;0.65;;;;;;;;;;1480931;40;20052;-61
2021/05/16 02:11:00;;;;;;;1.50;0.63;;;;;;;;;;1480971;40;20056;-61
2021/05/16 02:12:00;;;;;;;1.55;0.50;;;;;;;;;;1480877;40;20037;-61
2021/05/16 02:13:02;;;;;;;1.92;0.70;;;;;;;;;;1480954;40;20403;-61
2021/05/16 02:14:03;;;;;;;1.42;0.52;;;;;;;;;;1480794;40;20025;-60
2021/05/16 02:15:08;;;;;;;2.25;0.50;;;;;;;;;;1480816;40;20358;-61
2021/05/16 02:16:10;;;;;;;1.75;0.60;;;;;;;;;;1480947;40;20040;-61
2021/05/16 02:17:13;;;;;;;1.20;0.60;;;;;;;;;;1480967;40;20036;-61
2021/05/16 02:18:16;;;;;;;1.60;0.60;;;;;;;;;;1480846;40;20025;-61
2021/05/16 02:19:17;;;;;;;1.67;0.55;;;;;;;;;;1480889;40;20068;-60
2021/05/16 02:20:20;;;;;;;1.90;0.50;;;;;;;;;;1480906;40;20029;-61
2021/05/16 02:21:20;;;;;;;1.73;0.50;;;;;;;;;;1480952;40;20025;-61
2021/05/16 02:22:22;;;;;;;0.65;0.50;;;;;;;;;;1480761;40;20389;-61
2021/05/16 02:23:24;;;;;;;2.53;0.70;;;;;;;;;;1480889;40;20129;-62
2021/05/16 02:24:25;;;;;;;2.17;0.70;;;;;;;;;;1480900;40;20292;-61
2021/05/16 02:25:26;;;;;;;2.30;0.55;;;;;;;;;;1480936;40;20045;-61
2021/05/16 02:26:27;;;;;;;1.60;0.40;;;;;;;;;;1480428;40;20032;-61
2021/05/16 02:27:28;;;;;;;1.15;0.45;;;;;;;;;;1480253;40;20033;-61
2021/05/16 02:28:30;;;;;;;1.77;0.68;;;;;;;;;;1480851;40;20025;-62
2021/05/16 02:29:31;;;;;;;0.70;0.43;;;;;;;;;;1480745;40;20056;-61
2021/05/16 02:30:32;;;;;;;1.30;0.52;;;;;;;;;;1480761;40;20030;-61
2021/05/16 02:31:33;;;;;;;2.58;0.60;;;;;;;;;;1480758;40;20300;-62
2021/05/16 02:32:35;;;;;;;3.03;0.75;;;;;;;;;;1480491;40;20029;-61
2021/05/16 02:33:36;;;;;;;1.10;0.50;;;;;;;;;;1480235;40;20321;-62
2021/05/16 02:34:37;;;;;;;2.15;0.65;;;;;;;;;;1480708;40;20039;-61
2021/05/16 02:35:38;;;;;;;1.52;0.77;;;;;;;;;;1480709;40;20029;-62
2021/05/16 02:36:40;;;;;;;2.03;0.80;;;;;;;;;;1480807;40;20110;-62
2021/05/16 02:37:41;;;;;;;1.17;0.70;;;;;;;;;;1480922;40;20110;-61
2021/05/16 02:38:43;;;;;;;1.85;0.60;;;;;;;;;;1480760;40;20021;-61
2021/05/16 02:39:44;;;;;;;1.00;0.55;;;;;;;;;;1480657;40;20037;-61
2021/05/16 02:40:45;;;;;;;1.88;0.70;;;;;;;;;;1480707;40;20030;-61
2021/05/16 02:41:46;;;;;;;1.60;0.60;;;;;;;;;;1480698;40;20411;-61
2021/05/16 02:42:47;;;;;;;0.90;0.52;;;;;;;;;;1480808;40;20033;-61
2021/05/16 02:43:48;;;;;;;1.25;0.55;;;;;;;;;;1480801;40;20041;-61
2021/05/16 02:44:49;;;;;;;0.70;0.40;;;;;;;;;;1480669;40;20042;-61
2021/05/16 02:45:51;;;;;;;1.38;0.80;;;;;;;;;;1480903;40;20025;-61
2021/05/16 02:46:51;;;;;;;0.98;0.50;;;;;;;;;;1480678;40;20106;-60
2021/05/16 02:47:53;;;;;;;1.05;0.50;;;;;;;;;;1480720;40;20119;-62
2021/05/16 02:48:54;;;;;;;1.15;0.52;;;;;;;;;;1480662;40;20044;-61
2021/05/16 02:49:55;;;;;;;1.38;0.50;;;;;;;;;;1480892;40;20044;-61
2021/05/16 02:50:56;;;;;;;1.90;0.60;;;;;;;;;;1480757;40;20041;-61
2021/05/16 02:51:58;;;;;;;1.48;0.60;;;;;;;;;;1480847;40;20033;-62
2021/05/16 02:52:58;;;;;;;1.17;0.60;;;;;;;;;;1480859;40;20025;-61
2021/05/16 02:54:01;;;;;;;1.30;0.40;;;;;;;;;;1480662;40;20257;-61
2021/05/16 02:55:02;;;;;;;0.90;0.50;;;;;;;;;;1480625;40;20033;-61
2021/05/16 02:56:04;;;;;;;1.40;0.60;;;;;;;;;;1480706;40;20317;-61
2021/05/16 02:57:05;;;;;;;2.47;0.60;;;;;;;;;;1480756;40;20404;-61
2021/05/16 02:58:06;;;;;;;1.50;0.60;;;;;;;;;;1480866;40;20040;-61
2021/05/16 02:59:07;;;;;;;3.58;1.02;;;;;;;;;;1480757;40;20033;-61
2021/05/16 03:00:10;;;;;;;1.73;0.60;;;;;;;;;;1480729;40;20041;-61
2021/05/16 03:01:11;;;;;;;1.30;0.52;;;;;;;;;;1480747;40;20037;-61
2021/05/16 03:02:12;;;;;;;0.90;0.50;;;;;;;;;;1480692;40;20379;-61
2021/05/16 03:03:13;;;;;;;1.83;0.70;;;;;;;;;;1480771;40;20502;-61
2021/05/16 03:04:14;;;;;;;0.95;0.63;;;;;;;;;;1480674;40;20033;-61
2021/05/16 03:05:15;;;;;;;1.35;0.50;;;;;;;;;;1480883;40;20033;-61
2021/05/16 03:06:16;;;;;;;1.33;0.60;;;;;;;;;;1480880;40;20032;-61
2021/05/16 03:07:17;;;;;;;0.70;0.50;;;;;;;;;;1480808;40;20029;-61
2021/05/16 03:08:19;;;;;;;2.05;0.57;;;;;;;;;;1480747;40;20037;-61
2021/05/16 03:09:20;;;;;;;3.15;0.80;;;;;;;;;;1480760;40;20063;-61
2021/05/16 03:10:22;;;;;;;1.00;0.47;;;;;;;;;;1480837;40;20129;-61
2021/05/16 03:11:23;;;;;;;1.15;0.55;;;;;;;;;;1480797;40;20029;-61
2021/05/16 03:12:24;;;;;;;0.77;0.50;;;;;;;;;;1480689;40;20417;-61
2021/05/16 03:13:25;;;;;;;1.00;0.52;;;;;;;;;;1480664;40;20131;-62
2021/05/16 03:14:26;;;;;;;2.20;0.50;;;;;;;;;;1480839;40;20393;-61
2021/05/16 03:15:27;;;;;;;2.22;0.70;;;;;;;;;;1480821;40;20022;-61
2021/05/16 03:16:29;;;;;;;1.70;0.65;;;;;;;;;;1480871;40;20033;-61
2021/05/16 03:17:30;;;;;;;1.85;0.50;;;;;;;;;;1480608;40;20055;-61
2021/05/16 03:18:31;;;;;;;1.10;0.70;;;;;;;;;;1480653;40;20328;-61
2021/05/16 03:19:32;;;;;;;1.25;0.60;;;;;;;;;;1480564;40;20037;-61
2021/05/16 03:20:34;;;;;;;1.35;0.47;;;;;;;;;;1480672;40;20115;-61
2021/05/16 03:21:34;;;;;;;1.27;0.50;;;;;;;;;;1480849;40;20037;-61
2021/05/16 03:22:36;;;;;;;1.40;0.60;;;;;;;;;;1480719;40;20043;-61
2021/05/16 03:23:37;;;;;;;1.70;0.57;;;;;;;;;;1480658;40;20396;-61
2021/05/16 03:24:39;;;;;;;1.15;0.82;;;;;;;;;;1480846;40;20029;-61
2021/05/16 03:25:40;;;;;;;1.83;0.60;;;;;;;;;;1480673;40;20032;-61
2021/05/16 03:26:41;;;;;;;0.93;0.50;;;;;;;;;;1480840;40;20385;-62
2021/05/16 03:27:42;;;;;;;2.00;0.77;;;;;;;;;;1480522;40;20029;-62
2021/05/16 03:28:44;;;;;;;1.58;0.52;;;;;;;;;;1480615;40;20111;-61
2021/05/16 03:29:45;;;;;;;1.13;0.35;;;;;;;;;;1480584;40;20137;-60
2021/05/16 03:30:46;;;;;;;1.85;0.60;;;;;;;;;;1480572;40;20037;-61
2021/05/16 03:31:48;;;;;;;1.70;0.47;;;;;;;;;;1480631;40;20292;-61
2021/05/16 03:32:49;;;;;;;2.35;0.75;;;;;;;;;;1480792;40;20033;-61
2021/05/16 03:33:50;;;;;;;1.58;0.60;;;;;;;;;;1480797;40;20041;-61
2021/05/16 03:34:51;;;;;;;0.82;0.50;;;;;;;;;;1480619;40;20079;-61
2021/05/16 03:35:53;;;;;;;2.22;0.50;;;;;;;;;;1480782;40;20041;-62
2021/05/16 03:36:54;;;;;;;0.80;0.50;;;;;;;;;;1480221;40;20087;-62
2021/05/16 03:37:56;;;;;;;0.90;0.45;;;;;;;;;;1480122;40;20029;-61
2021/05/16 03:38:57;;;;;;;1.50;0.50;;;;;;;;;;1480740;40;20029;-61
2021/05/16 03:39:59;;;;;;;2.28;0.80;;;;;;;;;;1480526;40;20393;-61
2021/05/16 03:41:00;;;;;;;1.73;0.70;;;;;;;;;;1480546;40;20396;-61
2021/05/16 03:42:01;;;;;;;1.02;0.50;;;;;;;;;;1480806;40;20029;-61
2021/05/16 03:43:03;;;;;;;1.10;0.43;;;;;;;;;;1480594;40;20052;-62
2021/05/16 03:44:05;;;;;;;2.10;0.70;;;;;;;;;;1480563;40;20025;-61
2021/05/16 03:45:08;;;;;;;1.98;0.60;;;;;;;;;;1480626;40;20036;-61
2021/05/16 03:46:10;;;;;;;1.52;0.60;;;;;;;;;;1480605;40;20094;-61
2021/05/16 03:47:11;;;;;;;1.00;0.60;;;;;;;;;;1480534;40;20036;-62
2021/05/16 03:48:12;;;;;;;1.38;0.70;;;;;;;;;;1480580;40;20032;-61
2021/05/16 03:49:15;;;;;;;2.28;0.77;;;;;;;;;;1480799;40;20032;-61
2021/05/16 03:50:16;;;;;;;1.98;0.70;;;;;;;;;;1480749;40;20111;-61
2021/05/16 03:51:17;;;;;;;1.70;0.70;;;;;;;;;;1480540;40;20486;-61
2021/05/16 03:52:19;;;;;;;1.02;0.40;;;;;;;;;;1480525;40;20038;-61
2021/05/16 03:53:21;;;;;;;2.15;0.70;;;;;;;;;;1480544;40;20381;-62
2021/05/16 03:54:21;;;;;;;1.13;0.68;;;;;;;;;;1480728;40;20075;-61
2021/05/16 03:55:24;;;;;;;3.40;0.65;;;;;;;;;;1480546;40;20335;-62
2021/05/16 03:56:25;;;;;;;3.60;0.70;;;;;;;;;;1480742;40;20110;-61
2021/05/16 03:57:26;;;;;;;1.48;0.60;;;;;;;;;;1480734;40;20358;-61
2021/05/16 03:58:27;;;;;;;2.30;0.70;;;;;;;;;;1480567;40;20384;-61
2021/05/16 03:59:28;;;;;;;1.20;0.80;;;;;;;;;;1480688;40;20033;-61
2021/05/16 04:00:29;;;;;;;1.98;0.60;;;;;;;;;;1480760;40;20029;-60
2021/05/16 04:01:31;;;;;;;2.72;0.57;;;;;;;;;;1480522;40;20308;-61
2021/05/16 04:02:31;;;;;;;3.30;0.75;;;;;;;;;;1480545;40;20129;-62
2021/05/16 04:03:33;;;;;;;1.42;0.50;;;;;;;;;;1480741;40;20026;-61
2021/05/16 04:04:34;;;;;;;1.35;0.60;;;;;;;;;;1480512;40;20084;-61
2021/05/16 04:05:35;;;;;;;1.25;0.50;;;;;;;;;;1480674;40;20092;-61
2021/05/16 04:06:36;;;;;;;1.83;0.50;;;;;;;;;;1480493;40;20040;-60
2021/05/16 04:07:37;;;;;;;2.25;0.52;;;;;;;;;;1480589;40;20029;-61
2021/05/16 04:08:38;;;;;;;1.60;0.63;;;;;;;;;;1480527;40;20092;-61
2021/05/16 04:09:40;;;;;;;2.15;0.77;;;;;;;;;;1480485;40;20041;-63
2021/05/16 04:10:41;;;;;;;3.92;0.77;;;;;;;;;;1480069;40;20037;-61
2021/05/16 04:11:42;;;;;;;1.27;0.50;;;;;;;;;;1480019;40;20029;-61
2021/05/16 04:12:43;;;;;;;1.23;0.68;;;;;;;;;;1480739;40;20025;-62
2021/05/16 04:13:45;;;;;;;2.38;0.68;;;;;;;;;;1480719;40;20387;-62
2021/05/16 04:14:49;;;;;;;1.42;0.70;;;;;;;;;;1480517;40;20126;-61
2021/05/16 04:15:51;;;;;;;1.48;0.73;;;;;;;;;;1480522;40;20478;-61
2021/05/16 04:16:51;;;;;;;3.17;0.70;;;;;;;;;;1480755;40;20029;-61
2021/05/16 04:17:53;;;;;;;1.88;0.80;;;;;;;;;;1480748;40;20048;-62
2021/05/16 04:18:53;;;;;;;3.28;0.70;;;;;;;;;;1480597;40;20151;-61
2021/05/16 04:19:55;;;;;;;1.50;0.80;;;;;;;;;;1480593;40;20052;-61
2021/05/16 04:20:56;;;;;;;0.80;0.50;;;;;;;;;;1480482;40;20292;-61
2021/05/16 04:21:57;;;;;;;2.30;0.80;;;;;;;;;;1480596;40;20329;-62
2021/05/16 04:22:59;;;;;;;1.80;0.55;;;;;;;;;;1480419;40;20049;-62
2021/05/16 04:24:00;;;;;;;1.90;0.55;;;;;;;;;;1480644;40;20065;-62
2021/05/16 04:25:01;;;;;;;1.13;0.50;;;;;;;;;;1480429;40;20101;-61
2021/05/16 04:26:03;;;;;;;1.42;0.70;;;;;;;;;;1480568;40;20033;-61
2021/05/16 04:27:05;;;;;;;1.90;0.50;;;;;;;;;;1480363;40;20033;-62
2021/05/16 04:28:06;;;;;;;3.20;0.70;;;;;;;;;;1480734;40;20040;-61
2021/05/16 04:29:07;;;;;;;0.90;0.50;;;;;;;;;;1480439;40;20308;-61
2021/05/16 04:30:09;;;;;;;2.05;0.73;;;;;;;;;;1480581;40;20033;-61
2021/05/16 04:31:10;;;;;;;1.63;0.70;;;;;;;;;;1480417;40;20029;-62
2021/05/16 04:32:11;;;;;;;2.53;0.70;;;;;;;;;;1480739;40;20032;-62
2021/05/16 04:33:12;;;;;;;1.65;0.65;;;;;;;;;;1480537;40;20029;-62
2021/05/16 04:34:14;;;;;;;1.95;0.57;;;;;;;;;;1480434;40;20029;-61
2021/05/16 04:35:14;;;;;;;2.55;0.70;;;;;;;;;;1480624;40;20029;-62
2021/05/16 04:36:16;;;;;;;2.67;0.60;;;;;;;;;;1480645;40;20029;-62
2021/05/16 04:37:17;;;;;;;2.70;0.85;;;;;;;;;;1480469;40;20025;-62
2021/05/16 04:38:18;;;;;;;2.50;0.70;;;;;;;;;;1480480;40;20033;-61
2021/05/16 04:39:19;;;;;;;2.40;0.60;;;;;;;;;;1479857;40;20025;-61
2021/05/16 04:40:20;;;;;;;1.02;0.68;;;;;;;;;;1479924;40;20096;-61
2021/05/16 04:41:22;;;;;;;2.22;0.85;;;;;;;;;;1480626;40;20037;-62
2021/05/16 04:42:23;;;;;;;3.10;0.70;;;;;;;;;;1480481;40;20380;-62
2021/05/16 04:43:24;;;;;;;1.95;0.73;;;;;;;;;;1480605;40;20033;-61
2021/05/16 04:44:26;;;;;;;2.03;0.70;;;;;;;;;;1480507;40;20032;-61
2021/05/16 04:45:26;;;;;;;2.08;0.75;;;;;;;;;;1480403;40;20446;-62
2021/05/16 04:46:28;;;;;;;3.97;0.77;;;;;;;;;;1480593;40;20060;-61
2021/05/16 04:47:29;;;;;;;3.20;0.88;;;;;;;;;;1480377;40;20032;-62
2021/05/16 04:48:30;;;;;;;1.60;0.70;;;;;;;;;;1480608;40;20036;-61
2021/05/16 04:49:31;;;;;;;1.42;0.65;;;;;;;;;;1480309;40;20029;-61
2021/05/16 04:50:33;;;;;;;1.52;0.60;;;;;;;;;;1480615;40;20029;-61
2021/05/16 04:51:34;;;;;;;3.03;0.68;;;;;;;;;;1480565;40;20044;-61
2021/05/16 04:52:35;;;;;;;2.03;0.70;;;;;;;;;;1480586;40;20033;-61
2021/05/16 04:53:37;;;;;;;1.38;0.70;;;;;;;;;;1480433;40;20304;-61
2021/05/16 04:54:38;;;;;;;1.85;0.77;;;;;;;;;;1480608;40;20037;-61
2021/05/16 04:55:39;;;;;;;1.23;0.60;;;;;;;;;;1480423;40;20408;-61
2021/05/16 04:56:41;;;;;;;2.00;0.70;;;;;;;;;;1480403;40;20032;-62
2021/05/16 04:57:44;;;;;;;1.50;0.60;;;;;;;;;;1480432;40;20039;-62
2021/05/16 04:58:46;;;;;;;1.45;0.70;;;;;;;;;;1480406;40;20033;-61
2021/05/16 04:59:49;;;;;;;2.70;0.80;;;;;;;;;;1479863;40;20409;-62
2021/05/16 05:00:50;;;;;;;2.25;0.73;;;;;;;;;;1479941;40;20411;-61
2021/05/16 05:01:51;;;;;;;1.00;0.60;;;;;;;;;;1480551;40;20026;-62
2021/05/16 05:02:53;;;;;;;2.35;0.60;;;;;;;;;;1480596;40;20159;-62
2021/05/16 05:03:54;;;;;;;2.25;1.00;;;;;;;;;;1480363;40;20032;-62
2021/05/16 05:04:55;;;;;;;2.03;0.70;;;;;;;;;;1480576;40;20087;-62
2021/05/16 05:05:57;;;;;;;2.70;0.60;;;;;;;;;;1480594;40;20029;-62
2021/05/16 05:06:58;;;;;;;4.53;1.15;;;;;;;;;;1480675;40;20033;-62
2021/05/16 05:08:00;;;;;;;2.03;0.63;;;;;;;;;;1480309;40;20033;-62
2021/05/16 05:09:05;;;;;;;3.05;0.90;;;;;;;;;;1480554;40;20026;-61
2021/05/16 05:10:07;;;;;;;1.85;0.70;;;;;;;;;;1480488;40;20296;-62
2021/05/16 05:11:08;;;;;;;2.22;0.80;;;;;;;;;;1480412;40;20090;-62
2021/05/16 05:12:10;;;;;;;3.55;0.80;;;;;;;;;;1480350;40;20033;-62
2021/05/16 05:13:11;;;;;;;2.45;1.00;;;;;;;;;;1480366;40;20398;-62
2021/05/16 05:14:12;;;;;;;1.83;0.70;;;;;;;;;;1480362;40;20045;-61
2021/05/16 05:15:14;;;;;;;3.90;1.17;;;;;;;;;;1480404;40;20037;-62
2021/05/16 05:16:14;;;;;;;2.63;0.63;;;;;;;;;;1480633;40;20037;-62
2021/05/16 05:17:16;;;;;;;1.95;0.70;;;;;;;;;;1480333;40;20385;-63
2021/05/16 05:18:18;;;;;;;3.70;0.80;;;;;;;;;;1480400;40;20029;-63
2021/05/16 05:19:19;;;;;;;2.35;0.80;;;;;;;;;;1480269;40;20397;-62
2021/05/16 05:20:22;;;;;;;2.13;0.80;;;;;;;;;;1480362;40;20026;-62
2021/05/16 05:21:23;;;;;;;7.28;0.90;;;;;;;;;;1480512;40;20065;-62
2021/05/16 05:22:24;;;;;;;2.63;1.13;;;;;;;;;;1480358;40;20313;-62
2021/05/16 05:23:26;;;;;;;2.28;0.80;;;;;;;;;;1480310;40;20033;-62
2021/05/16 05:24:27;;;;;;;3.60;0.80;;;;;;;;;;1480280;40;20115;-62
2021/05/16 05:25:29;;;;;;;1.95;0.77;;;;;;;;;;1480339;40;20045;-61
2021/05/16 05:26:30;;;;;;;2.45;0.70;;;;;;;;;;1480283;40;20029;-62
2021/05/16 05:27:32;;;;;;;2.17;1.00;;;;;;;;;;1480437;40;20040;-63
2021/05/16 05:28:33;;;;;;;1.45;0.60;;;;;;;;;;1480314;40;20317;-63
2021/05/16 05:29:34;;;;;;;3.58;0.90;;;;;;;;;;1480277;40;20049;-61
2021/05/16 05:30:36;;;;;;;4.43;0.88;;;;;;;;;;1480476;40;20118;-62
2021/05/16 05:31:37;;;;;;;3.35;0.80;;;;;;;;;;1480326;40;20037;-63
2021/05/16 05:32:39;;;;;;;2.20;0.82;;;;;;;;;;1480291;40;20025;-62
2021/05/16 05:33:40;;;;;;;3.42;1.02;;;;;;;;;;1480487;40;20029;-62
2021/05/16 05:34:41;;;;;;;3.80;1.00;;;;;;;;;;1480441;40;20029;-62
2021/05/16 05:35:42;;;;;;;2.33;0.80;;;;;;;;;;1480382;40;20025;-62
2021/05/16 05:36:43;;;;;;;1.92;0.80;;;;;;;;;;1479646;40;20037;-62
2021/05/16 05:37:44;;;;;;;4.07;0.80;;;;;;;;;;1480579;40;20088;-63
2021/05/16 05:38:46;;;;;;;2.47;1.00;;;;;;;;;;1480484;40;20033;-61
2021/05/16 05:39:46;;;;;;;2.80;0.88;;;;;;;;;;1480387;40;20036;-61
2021/05/16 05:40:48;;;;;;;2.10;0.88;;;;;;;;;;1480419;40;20295;-63
2021/05/16 05:41:49;;;;;;;2.13;0.80;;;;;;;;;;1480252;40;20055;-62
2021/05/16 05:42:51;;;;;;;4.20;1.00;;;;;;;;;;1480502;40;20029;-63
2021/05/16 05:43:52;;;;;;;2.17;0.70;;;;;;;;;;1480274;40;20436;-62
2021/05/16 05:44:54;;;;;;;2.22;1.00;;;;;;;;;;1480289;40;20033;-63
2021/05/16 05:45:54;;;;;;;3.45;0.98;;;;;;;;;;1480260;40;20056;-63
2021/05/16 05:46:56;;;;;;;4.30;1.00;;;;;;;;;;1480259;40;20079;-62
2021/05/16 05:47:57;;;;;;;3.60;0.90;;;;;;;;;;1480359;40;20032;-63
2021/05/16 05:48:58;;;;;;;2.97;0.98;;;;;;;;;;1480231;40;20033;-62
2021/05/16 05:49:59;;;;;;;3.15;0.70;;;;;;;;;;1480395;40;20033;-63
2021/05/16 05:51:00;;;;;;;2.55;1.00;;;;;;;;;;1480256;40;20029;-62
2021/05/16 05:52:02;;;;;;;3.47;1.08;;;;;;;;;;1480256;40;20037;-62
2021/05/16 05:53:03;;;;;;;1.35;0.90;;;;;;;;;;1480248;40;20303;-63
2021/05/16 05:54:05;;;;;;;3.13;1.30;;;;;;;;;;1480445;40;20032;-63
2021/05/16 05:55:07;;;;;;;3.13;0.93;;;;;;;;;;1480424;40;20040;-62
2021/05/16 05:56:08;;;;;;;3.03;0.90;;;;;;;;;;1480400;40;20037;-62
2021/05/16 05:57:09;;;;;;;2.58;1.05;;;;;;;;;;1480236;40;20029;-61
2021/05/16 05:58:11;;;;;;;2.03;0.82;;;;;;;;;;1480442;40;20033;-61
2021/05/16 05:59:14;;;;;;;2.03;0.90;;;;;;;;;;1480377;40;20033;-63
2021/05/16 06:00:15;;;;;;;3.92;1.00;;;;;;;;;;1480352;40;20045;-62
2021/05/16 06:01:17;;;;;;;4.28;0.93;;;;;;;;;;1480253;40;20289;-62
2021/05/16 06:02:17;;;;;;;2.75;0.90;;;;;;;;;;1480396;40;20033;-62
2021/05/16 06:03:19;;;;;;;1.50;0.90;;;;;;;;;;1480352;40;20371;-63
2021/05/16 06:04:19;;;;;;;2.45;1.20;;;;;;;;;;1480415;40;20029;-62
2021/05/16 06:05:21;;;;;;;2.95;1.08;;;;;;;;;;1480187;40;20407;-62
2021/05/16 06:06:22;;;;;;;3.67;1.33;;;;;;;;;;1480320;40;20417;-61
2021/05/16 06:07:23;;;;;;;4.80;1.10;;;;;;;;;;1480166;40;20138;-62
2021/05/16 06:08:24;;;;;;;4.90;1.40;;;;;;;;;;1480193;40;20316;-62
2021/05/16 06:09:29;;;;;;;2.97;0.98;;;;;;;;;;1480479;40;20031;-62